createdAt,value
2023-02-24T00:02:00.152Z,3.97
2023-02-24T00:04:38.720Z,4.33
2023-02-24T00:07:10.524Z,4.00
2023-02-24T00:09:39.176Z,4.60
2023-02-24T00:12:12.009Z,4.23
2023-02-24T00:14:43.015Z,4.30
2023-02-24T00:17:12.312Z,4.47
2023-02-24T00:19:39.078Z,5.13
2023-02-24T00:22:08.097Z,4.13
2023-02-24T00:24:35.911Z,4.63
2023-02-24T00:27:07.804Z,4.13
2023-02-24T00:29:37.584Z,4.90
2023-02-24T00:32:07.278Z,5.10
2023-02-24T00:34:36.915Z,5.07
2023-02-24T00:37:08.694Z,5.60
2023-02-24T00:39:36.662Z,4.50
2023-02-24T00:42:06.094Z,4.60
2023-02-24T00:44:45.622Z,5.17
2023-02-24T00:47:14.322Z,4.50
2023-02-24T00:49:42.936Z,4.47
2023-02-24T00:52:15.720Z,5.60
2023-02-24T00:54:43.963Z,4.10
2023-02-24T00:57:11.443Z,5.33
2023-02-24T00:59:39.352Z,4.27
2023-02-24T01:02:11.513Z,5.03
2023-02-24T01:04:38.874Z,4.43
2023-02-24T01:07:10.883Z,4.60
2023-02-24T01:09:39.676Z,5.13
2023-02-24T01:12:30.194Z,3.70
2023-02-24T01:14:57.127Z,4.07
2023-02-24T01:17:25.468Z,4.03
2023-02-24T01:19:52.713Z,4.33
2023-02-24T01:22:21.072Z,4.17
2023-02-24T01:24:48.650Z,4.73
2023-02-24T01:27:19.063Z,4.27
2023-02-24T01:29:47.288Z,4.33
2023-02-24T01:32:20.205Z,4.90
2023-02-24T01:34:48.224Z,4.40
2023-02-24T01:37:19.337Z,4.73
2023-02-24T01:39:46.531Z,4.53
2023-02-24T01:42:21.358Z,3.77
2023-02-24T01:44:48.151Z,2.97
2023-02-24T01:47:21.190Z,3.70
2023-02-24T01:49:52.768Z,3.90
2023-02-24T01:52:31.114Z,4.57
2023-02-24T01:55:11.121Z,3.50
2023-02-24T01:57:39.764Z,3.43
2023-02-24T02:00:31.719Z,3.97
2023-02-24T02:03:02.158Z,4.03
2023-02-24T02:05:29.047Z,3.70
2023-02-24T02:07:55.873Z,3.93
2023-02-24T02:10:23.308Z,4.03
2023-02-24T02:12:51.362Z,3.50
2023-02-24T02:15:20.772Z,3.67
2023-02-24T02:18:09.502Z,3.90
2023-02-24T02:21:11.002Z,3.37
2023-02-24T02:23:54.140Z,3.47
2023-02-24T02:26:33.675Z,3.60
2023-02-24T02:29:03.067Z,4.50
2023-02-24T02:32:08.245Z,3.57
2023-02-24T02:34:57.430Z,4.00
2023-02-24T02:37:24.710Z,3.00
2023-02-24T02:40:18.799Z,3.27
2023-02-24T02:43:03.531Z,4.13
2023-02-24T02:45:49.209Z,3.80
2023-02-24T02:48:23.277Z,3.87
2023-02-24T02:50:52.848Z,4.00
2023-02-24T02:53:30.913Z,3.60
2023-02-24T02:56:09.655Z,3.93
2023-02-24T02:58:41.032Z,4.80
2023-02-24T03:01:09.951Z,3.43
2023-02-24T03:03:49.243Z,3.63
2023-02-24T03:06:19.379Z,3.87
2023-02-24T03:08:55.657Z,3.23
2023-02-24T03:11:23.163Z,3.77
2023-02-24T03:13:52.704Z,4.57
2023-02-24T03:16:23.217Z,3.50
2023-02-24T03:19:00.780Z,3.67
2023-02-24T03:21:36.576Z,3.70
2023-02-24T03:24:06.457Z,3.60
2023-02-24T03:26:55.628Z,3.70
2023-02-24T03:29:33.000Z,3.50
2023-02-24T03:32:05.518Z,3.80
2023-02-24T03:34:41.375Z,3.30
2023-02-24T03:37:08.206Z,3.60
2023-02-24T03:39:35.157Z,3.40
2023-02-24T03:42:11.880Z,3.67
2023-02-24T03:44:38.864Z,4.70
2023-02-24T03:47:05.968Z,3.00
2023-02-24T03:49:32.685Z,3.47
2023-02-24T03:52:21.592Z,3.60
2023-02-24T03:55:20.036Z,2.83
2023-02-24T03:58:42.474Z,3.23
2023-02-24T04:01:34.970Z,3.37
2023-02-24T04:04:46.605Z,3.47
2023-02-24T04:07:39.356Z,3.70
2023-02-24T04:10:22.849Z,3.53
2023-02-24T04:13:02.185Z,3.57
2023-02-24T04:15:43.887Z,3.50
2023-02-24T04:18:19.712Z,3.67
2023-02-24T04:20:51.236Z,2.83
2023-02-24T04:23:21.915Z,2.90
2023-02-24T04:25:52.333Z,2.90
2023-02-24T04:28:22.684Z,2.50
2023-02-24T04:31:00.737Z,3.10
2023-02-24T04:33:27.875Z,2.80
2023-02-24T04:35:54.705Z,3.23
2023-02-24T04:38:21.597Z,2.70
2023-02-24T04:40:49.909Z,3.30
2023-02-24T04:43:17.456Z,2.57
2023-02-24T04:45:44.987Z,2.67
2023-02-24T04:48:15.033Z,2.33
2023-02-24T04:50:43.844Z,2.50
2023-02-24T04:53:12.185Z,2.70
2023-02-24T04:55:49.075Z,2.53
2023-02-24T04:58:21.319Z,2.07
2023-02-24T05:00:52.750Z,2.30
2023-02-24T05:03:21.262Z,1.93
2023-02-24T05:05:56.664Z,2.40
2023-02-24T05:08:24.591Z,1.97
2023-02-24T05:10:51.982Z,2.20
2023-02-24T05:13:27.386Z,2.00
2023-02-24T05:15:56.641Z,1.50
2023-02-24T05:18:24.514Z,1.90
2023-02-24T05:21:12.564Z,2.20
2023-02-24T05:23:44.596Z,2.10
2023-02-24T05:26:16.402Z,2.03
2023-02-24T05:28:52.322Z,1.83
2023-02-24T05:31:24.032Z,1.90
2023-02-24T05:33:54.712Z,2.10
2023-02-24T05:36:22.454Z,2.10
2023-02-24T05:38:56.566Z,2.30
2023-02-24T05:41:32.439Z,1.90
2023-02-24T05:44:02.559Z,1.90
2023-02-24T05:46:32.737Z,2.30
2023-02-24T05:49:02.433Z,2.53
2023-02-24T05:51:35.507Z,2.30
2023-02-24T05:54:07.297Z,2.17
2023-02-24T05:56:35.426Z,2.03
2023-02-24T05:59:04.010Z,2.23
2023-02-24T06:01:33.532Z,2.00
2023-02-24T06:04:05.772Z,2.40
2023-02-24T06:06:38.052Z,2.40
2023-02-24T06:09:10.742Z,2.53
2023-02-24T06:11:42.224Z,2.40
2023-02-24T06:14:11.164Z,2.17
2023-02-24T06:16:42.206Z,2.47
2023-02-24T06:19:10.773Z,2.10
2023-02-24T06:21:41.404Z,2.33
2023-02-24T06:24:15.702Z,2.40
2023-02-24T06:26:45.776Z,2.30
2023-02-24T06:29:14.988Z,2.17
2023-02-24T06:31:44.160Z,2.43
2023-02-24T06:34:14.004Z,2.33
2023-02-24T06:36:41.179Z,2.53
2023-02-24T06:39:08.336Z,2.20
2023-02-24T06:41:37.957Z,2.30
2023-02-24T06:44:04.789Z,2.50
2023-02-24T06:46:31.864Z,2.97
2023-02-24T06:48:58.674Z,2.57
2023-02-24T06:51:30.186Z,2.20
2023-02-24T06:53:59.645Z,1.80
2023-02-24T06:56:27.851Z,3.00
2023-02-24T06:58:57.074Z,2.40
2023-02-24T07:01:26.914Z,2.53
2023-02-24T07:04:01.484Z,2.37
2023-02-24T07:06:29.590Z,2.80
2023-02-24T07:08:58.928Z,2.67
2023-02-24T07:11:26.027Z,2.27
2023-02-24T07:13:54.629Z,2.47
2023-02-24T07:16:25.286Z,2.77
2023-02-24T07:18:56.972Z,2.43
2023-02-24T07:21:26.154Z,1.90
2023-02-24T07:23:58.746Z,2.53
2023-02-24T07:26:27.877Z,2.30
2023-02-24T07:28:55.140Z,2.00
2023-02-24T07:31:24.516Z,2.70
2023-02-24T07:33:57.416Z,2.27
2023-02-24T07:36:30.129Z,4.20
2023-02-24T07:38:59.013Z,3.13
2023-02-24T07:41:26.957Z,2.60
2023-02-24T07:43:55.107Z,2.87
2023-02-24T07:46:25.096Z,3.07
2023-02-24T07:48:53.065Z,2.43
2023-02-24T07:51:24.705Z,3.20
2023-02-24T07:53:56.750Z,2.97
2023-02-24T07:56:31.187Z,2.53
2023-02-24T07:59:02.045Z,2.40
2023-02-24T08:01:37.454Z,2.60
2023-02-24T08:04:08.284Z,2.90
2023-02-24T08:06:46.245Z,2.73
2023-02-24T08:09:43.228Z,2.30
2023-02-24T08:12:11.062Z,2.17
2023-02-24T08:14:44.639Z,2.40
2023-02-24T08:17:16.623Z,2.10
2023-02-24T08:19:43.466Z,2.90
2023-02-24T08:22:20.621Z,3.13
2023-02-24T08:24:50.893Z,2.90
2023-02-24T08:27:20.288Z,3.33
2023-02-24T08:29:58.510Z,3.00
2023-02-24T08:32:34.027Z,2.50
2023-02-24T08:35:05.428Z,3.80
2023-02-24T08:37:34.596Z,2.70
2023-02-24T08:40:01.229Z,2.80
2023-02-24T08:42:34.772Z,3.27
2023-02-24T08:45:02.259Z,2.70
2023-02-24T08:47:31.159Z,2.87
2023-02-24T08:50:02.235Z,3.00
2023-02-24T08:52:31.981Z,3.03
2023-02-24T08:55:02.445Z,3.10
2023-02-24T08:57:30.055Z,2.93
2023-02-24T09:00:11.936Z,3.23
2023-02-24T09:02:43.008Z,3.13
2023-02-24T09:05:14.542Z,2.80
2023-02-24T09:07:43.544Z,3.47
2023-02-24T09:10:20.372Z,3.27
2023-02-24T09:12:49.910Z,2.50
2023-02-24T09:15:18.401Z,3.27
2023-02-24T09:17:45.463Z,2.93
2023-02-24T09:20:33.699Z,2.97
2023-02-24T09:23:04.345Z,3.73
2023-02-24T09:25:44.066Z,3.17
2023-02-24T09:28:24.859Z,3.73
2023-02-24T09:30:59.137Z,3.63
2023-02-24T09:33:39.111Z,3.53
2023-02-24T09:36:13.750Z,3.43
2023-02-24T09:39:01.925Z,3.07
2023-02-24T09:41:56.937Z,3.70
2023-02-24T09:44:40.429Z,4.10
2023-02-24T09:47:39.832Z,3.93
2023-02-24T09:50:14.218Z,3.33
2023-02-24T09:52:41.530Z,3.47
2023-02-24T09:55:26.685Z,4.03
2023-02-24T09:58:18.207Z,3.73
2023-02-24T10:01:21.876Z,3.83
2023-02-24T10:04:14.848Z,4.30
2023-02-24T10:06:50.952Z,4.10
2023-02-24T10:09:34.713Z,3.87
2023-02-24T10:12:24.109Z,3.57
2023-02-24T10:16:07.431Z,4.00
2023-02-24T10:18:58.217Z,3.90
2023-02-24T10:21:48.520Z,3.90
2023-02-24T10:24:29.554Z,3.90
2023-02-24T10:27:01.282Z,3.63
2023-02-24T10:30:04.276Z,3.93
2023-02-24T10:32:53.331Z,3.57
2023-02-24T10:35:26.048Z,3.90
2023-02-24T10:37:54.106Z,3.77
2023-02-24T10:40:44.863Z,3.90
2023-02-24T10:43:18.586Z,3.93
2023-02-24T10:45:47.238Z,3.87
2023-02-24T10:48:41.383Z,3.70
2023-02-24T10:51:31.958Z,3.83
2023-02-24T10:54:34.635Z,4.03
2023-02-24T10:57:18.732Z,4.20
2023-02-24T11:00:02.540Z,4.40
2023-02-24T11:02:45.792Z,4.57
2023-02-24T11:05:38.482Z,4.80
2023-02-24T11:08:54.261Z,4.70
2023-02-24T11:11:30.019Z,4.63
2023-02-24T11:14:21.582Z,4.00
2023-02-24T11:17:12.964Z,4.57
2023-02-24T11:19:54.681Z,4.50
2023-02-24T11:22:28.042Z,4.77
2023-02-24T11:24:54.820Z,4.60
2023-02-24T11:27:25.214Z,5.00
2023-02-24T11:30:15.098Z,5.03
2023-02-24T11:33:12.280Z,5.60
2023-02-24T11:35:51.521Z,4.80
2023-02-24T11:38:28.092Z,5.00
2023-02-24T11:41:26.056Z,5.03
2023-02-24T11:44:01.655Z,5.30
2023-02-24T11:46:41.754Z,5.30
2023-02-24T11:49:42.135Z,5.13
2023-02-24T11:52:20.623Z,6.27
2023-02-24T11:54:53.840Z,5.20
2023-02-24T11:57:43.583Z,5.90
2023-02-24T12:00:20.314Z,5.80
2023-02-24T12:02:57.949Z,6.00
2023-02-24T12:05:28.567Z,5.63
2023-02-24T12:08:04.671Z,6.40
2023-02-24T12:10:35.991Z,6.30
2023-02-24T12:13:14.105Z,6.43
2023-02-24T12:16:03.572Z,6.03
2023-02-24T12:18:37.143Z,6.50
2023-02-24T12:21:23.897Z,6.60
2023-02-24T12:23:55.715Z,7.20
2023-02-24T12:26:28.958Z,7.20
2023-02-24T12:29:05.110Z,7.00
2023-02-24T12:31:57.261Z,7.13
2023-02-24T12:34:43.559Z,6.90
2023-02-24T12:37:31.176Z,7.37
2023-02-24T12:40:06.667Z,6.83
2023-02-24T12:42:59.378Z,7.47
2023-02-24T12:46:01.629Z,6.97
2023-02-24T12:48:32.273Z,6.80
2023-02-24T12:51:08.117Z,7.10
2023-02-24T12:53:59.544Z,6.97
2023-02-24T12:56:46.943Z,7.67
2023-02-24T12:59:19.416Z,6.67
2023-02-24T13:01:59.946Z,7.23
2023-02-24T13:05:04.305Z,6.97
2023-02-24T13:07:39.685Z,6.40
2023-02-24T13:10:24.700Z,6.90
2023-02-24T13:13:10.286Z,5.97
2023-02-24T13:15:37.256Z,6.47
2023-02-24T13:18:04.167Z,6.77
2023-02-24T13:20:34.666Z,6.60
2023-02-24T13:23:04.942Z,6.33
2023-02-24T13:25:37.312Z,6.73
2023-02-24T13:28:23.479Z,5.03
2023-02-24T13:31:06.422Z,5.80
2023-02-24T13:33:42.229Z,5.63
2023-02-24T13:36:13.558Z,6.20
2023-02-24T13:39:06.305Z,6.07
2023-02-24T13:41:33.018Z,5.27
2023-02-24T13:44:03.032Z,5.30
2023-02-24T13:46:51.699Z,6.17
2023-02-24T13:49:36.457Z,5.97
2023-02-24T13:52:24.872Z,5.87
2023-02-24T13:55:25.391Z,5.50
2023-02-24T13:58:01.114Z,5.27
2023-02-24T14:00:42.520Z,5.10
2023-02-24T14:03:12.859Z,5.70
2023-02-24T14:05:42.486Z,4.87
2023-02-24T14:08:21.577Z,4.67
2023-02-24T14:10:55.192Z,4.77
2023-02-24T14:13:29.608Z,4.80
2023-02-24T14:15:56.908Z,4.80
2023-02-24T14:18:27.572Z,4.70
2023-02-24T14:20:56.243Z,5.13
2023-02-24T14:23:26.446Z,4.77
2023-02-24T14:25:58.264Z,5.10
2023-02-24T14:28:37.152Z,4.57
2023-02-24T14:31:16.703Z,4.57
2023-02-24T14:33:45.439Z,4.97
2023-02-24T14:36:20.729Z,5.23
2023-02-24T14:38:47.753Z,5.83
2023-02-24T14:41:23.836Z,5.63
2023-02-24T14:43:51.796Z,5.23
2023-02-24T14:46:18.744Z,6.20
2023-02-24T14:48:46.169Z,6.10
2023-02-24T14:51:37.352Z,5.77
2023-02-24T14:54:08.612Z,6.60
2023-02-24T14:56:36.103Z,6.50
2023-02-24T14:59:08.335Z,6.40
2023-02-24T15:01:48.453Z,6.33
2023-02-24T15:04:43.766Z,6.87
2023-02-24T15:07:23.912Z,6.60
2023-02-24T15:09:53.442Z,6.97
2023-02-24T15:12:26.212Z,7.33
2023-02-24T15:14:57.746Z,7.20
2023-02-24T15:17:25.108Z,6.80
2023-02-24T15:19:54.853Z,6.70
2023-02-24T15:22:34.874Z,7.83
2023-02-24T15:25:28.115Z,6.73
2023-02-24T15:28:02.797Z,6.90
2023-02-24T15:30:35.970Z,8.60
2023-02-24T15:33:27.753Z,7.70
2023-02-24T15:35:58.360Z,8.27
2023-02-24T15:38:34.071Z,8.40
2023-02-24T15:41:04.178Z,8.43
2023-02-24T15:43:35.245Z,9.37
2023-02-24T15:46:21.950Z,8.27
2023-02-24T15:48:51.791Z,9.03
2023-02-24T15:51:26.587Z,8.63
2023-02-24T15:53:53.537Z,9.93
2023-02-24T15:56:20.810Z,8.50
2023-02-24T15:58:47.836Z,9.10
2023-02-24T16:01:14.639Z,9.00
2023-02-24T16:03:41.434Z,8.90
2023-02-24T16:06:17.792Z,7.90
2023-02-24T16:08:46.536Z,7.70
2023-02-24T16:11:14.442Z,7.50
2023-02-24T16:13:50.320Z,7.20
2023-02-24T16:16:18.053Z,7.10
2023-02-24T16:18:45.049Z,6.30
2023-02-24T16:21:11.895Z,6.50
2023-02-24T16:23:41.402Z,6.60
2023-02-24T16:26:26.297Z,6.23
2023-02-24T16:28:57.696Z,6.60
2023-02-24T16:31:25.954Z,6.67
2023-02-24T16:33:55.385Z,7.83
2023-02-24T16:36:25.297Z,7.23
2023-02-24T16:38:52.651Z,7.67
2023-02-24T16:41:19.735Z,8.70
2023-02-24T16:43:46.645Z,8.60
2023-02-24T16:46:17.118Z,8.37
2023-02-24T16:48:46.760Z,8.80
2023-02-24T16:51:14.840Z,9.20
2023-02-24T16:53:41.889Z,8.83
2023-02-24T16:56:08.833Z,8.63
2023-02-24T16:58:36.035Z,9.43
2023-02-24T17:01:04.964Z,8.70
2023-02-24T17:03:42.605Z,8.50
2023-02-24T17:06:09.784Z,9.70
2023-02-24T17:08:36.840Z,9.53
2023-02-24T17:11:03.952Z,9.60
2023-02-24T17:13:30.684Z,8.83
2023-02-24T17:15:58.333Z,6.80
2023-02-24T17:18:26.266Z,6.27
2023-02-24T17:20:53.651Z,5.67
2023-02-24T17:23:20.495Z,5.50
2023-02-24T17:25:55.015Z,5.00
2023-02-24T17:28:22.416Z,4.40
2023-02-24T17:30:49.276Z,4.33
2023-02-24T17:33:16.122Z,4.60
2023-02-24T17:35:43.570Z,3.50
2023-02-24T17:38:19.457Z,3.40
2023-02-24T17:40:46.609Z,3.10
2023-02-24T17:43:13.801Z,2.50
2023-02-24T17:45:44.471Z,2.53
2023-02-24T17:48:12.834Z,1.70
2023-02-24T17:50:46.854Z,1.40
2023-02-24T17:53:14.366Z,1.30
2023-02-24T17:55:55.905Z,0.90
2023-02-24T17:58:28.297Z,1.20
2023-02-24T18:00:56.213Z,1.70
2023-02-24T18:03:23.498Z,1.27
2023-02-24T18:06:01.984Z,1.70
2023-02-24T18:08:30.626Z,2.53
2023-02-24T18:10:59.123Z,2.30
2023-02-24T18:13:27.027Z,2.27
2023-02-24T18:15:53.980Z,1.87
2023-02-24T18:18:20.867Z,1.90
2023-02-24T18:20:47.671Z,1.87
2023-02-24T18:23:15.025Z,2.77
2023-02-24T18:25:41.852Z,1.90
2023-02-24T18:28:09.039Z,2.40
2023-02-24T18:30:38.211Z,2.23
2023-02-24T18:33:05.103Z,2.23
2023-02-24T18:35:31.869Z,2.03
2023-02-24T18:37:58.541Z,2.10
2023-02-24T18:40:29.507Z,2.07
2023-02-24T18:42:56.376Z,2.73
2023-02-24T18:45:23.760Z,2.20
2023-02-24T18:47:51.866Z,2.30
2023-02-24T18:50:19.258Z,2.17
2023-02-24T18:52:46.391Z,3.20
2023-02-24T18:55:13.049Z,2.77
2023-02-24T18:57:40.360Z,2.30
2023-02-24T19:00:07.681Z,2.43
2023-02-24T19:02:34.395Z,2.60
2023-02-24T19:05:01.099Z,2.83
2023-02-24T19:07:27.806Z,3.23
2023-02-24T19:09:54.707Z,2.83
2023-02-24T19:12:21.542Z,3.60
2023-02-24T19:14:52.494Z,2.83
2023-02-24T19:17:20.916Z,3.03
2023-02-24T19:19:48.092Z,3.13
2023-02-24T19:22:14.845Z,3.93
2023-02-24T19:24:41.642Z,2.73
2023-02-24T19:27:08.935Z,3.87
2023-02-24T19:29:35.753Z,3.93
2023-02-24T19:32:02.736Z,3.47
2023-02-24T19:34:29.626Z,3.57
2023-02-24T19:36:56.503Z,4.17
2023-02-24T19:39:23.262Z,2.90
2023-02-24T19:41:50.151Z,3.67
2023-02-24T19:44:17.285Z,4.27
2023-02-24T19:46:44.063Z,4.00
2023-02-24T19:49:10.904Z,3.90
2023-02-24T19:51:37.657Z,5.47
2023-02-24T19:54:06.273Z,4.67
2023-02-24T19:56:36.455Z,4.17
2023-02-24T19:59:06.011Z,4.93
2023-02-24T20:01:32.838Z,4.93
2023-02-24T20:04:02.015Z,4.17
2023-02-24T20:06:32.233Z,4.50
2023-02-24T20:08:59.734Z,4.63
2023-02-24T20:11:29.777Z,5.27
2023-02-24T20:13:57.760Z,4.03
2023-02-24T20:16:26.351Z,4.57
2023-02-24T20:18:55.424Z,4.33
2023-02-24T20:21:22.924Z,4.80
2023-02-24T20:23:49.710Z,4.57
2023-02-24T20:26:17.392Z,5.33
2023-02-24T20:28:45.649Z,4.50
2023-02-24T20:31:15.482Z,5.10
2023-02-24T20:33:43.629Z,4.90
2023-02-24T20:36:12.939Z,4.37
2023-02-24T20:38:39.816Z,4.97
2023-02-24T20:41:06.980Z,5.63
2023-02-24T20:43:34.596Z,7.10
2023-02-24T20:46:14.750Z,5.17
2023-02-24T20:48:41.931Z,4.37
2023-02-24T20:51:09.988Z,4.10
2023-02-24T20:53:55.681Z,4.57
2023-02-24T20:56:25.201Z,5.27
2023-02-24T20:58:53.959Z,5.43
2023-02-24T21:01:21.715Z,4.93
2023-02-24T21:03:50.328Z,4.30
2023-02-24T21:06:17.452Z,4.93
2023-02-24T21:08:44.800Z,4.80
2023-02-24T21:11:13.691Z,5.17
2023-02-24T21:13:45.693Z,4.93
2023-02-24T21:16:13.974Z,4.63
2023-02-24T21:18:42.745Z,4.80
2023-02-24T21:21:10.386Z,5.23
2023-02-24T21:23:38.538Z,4.93
2023-02-24T21:26:06.361Z,4.67
2023-02-24T21:28:33.445Z,5.63
2023-02-24T21:31:00.592Z,4.17
2023-02-24T21:33:27.884Z,4.73
2023-02-24T21:35:58.307Z,4.30
2023-02-24T21:38:25.428Z,3.70
2023-02-24T21:40:52.250Z,4.33
2023-02-24T21:43:18.922Z,3.90
2023-02-24T21:45:45.614Z,4.13
2023-02-24T21:48:12.247Z,4.33
2023-02-24T21:50:38.898Z,4.87
2023-02-24T21:53:06.288Z,5.13
2023-02-24T21:55:34.086Z,5.13
2023-02-24T21:58:00.842Z,4.00
2023-02-24T22:00:28.652Z,4.70
2023-02-24T22:02:56.153Z,4.90
2023-02-24T22:05:25.241Z,5.13
2023-02-24T22:07:52.601Z,5.03
2023-02-24T22:10:22.445Z,5.33
2023-02-24T22:12:50.673Z,5.53
2023-02-24T22:15:17.504Z,5.33
2023-02-24T22:17:44.228Z,4.50
2023-02-24T22:20:13.794Z,4.70
2023-02-24T22:22:42.094Z,5.63
2023-02-24T22:25:12.606Z,4.60
2023-02-24T22:27:39.506Z,4.83
2023-02-24T22:30:08.068Z,5.37
2023-02-24T22:32:36.136Z,4.07
2023-02-24T22:35:03.443Z,5.23
2023-02-24T22:37:30.318Z,4.80
2023-02-24T22:39:57.064Z,4.60
2023-02-24T22:42:23.809Z,4.27
2023-02-24T22:44:50.653Z,5.27
2023-02-24T22:47:17.608Z,5.43
2023-02-24T22:49:44.465Z,4.53
2023-02-24T22:52:11.775Z,4.70
2023-02-24T22:54:38.604Z,4.77
2023-02-24T22:57:05.346Z,4.40
2023-02-24T22:59:33.009Z,4.50
2023-02-24T23:01:59.851Z,4.07
2023-02-24T23:04:29.330Z,4.10
2023-02-24T23:06:57.278Z,3.30
2023-02-24T23:09:24.301Z,3.63
2023-02-24T23:11:51.018Z,5.20
2023-02-24T23:14:17.984Z,3.30
2023-02-24T23:16:46.532Z,3.97
2023-02-24T23:19:16.964Z,3.93
2023-02-24T23:21:46.714Z,3.90
2023-02-24T23:24:14.887Z,3.53
2023-02-24T23:26:51.492Z,3.30
2023-02-24T23:29:18.941Z,3.70
2023-02-24T23:31:46.353Z,3.87
2023-02-24T23:34:14.580Z,4.10
2023-02-24T23:36:43.690Z,3.90
2023-02-24T23:39:12.192Z,3.53
2023-02-24T23:41:38.975Z,3.83
2023-02-24T23:44:06.330Z,3.23
2023-02-24T23:46:34.943Z,4.13
2023-02-24T23:49:01.993Z,4.17
2023-02-24T23:51:45.781Z,4.20
2023-02-24T23:54:14.155Z,3.80
2023-02-24T23:56:41.256Z,3.73
2023-02-24T23:59:07.997Z,4.40
